createdAt,value
2019-01-29T00:01:34.840Z,75.41
2019-01-29T00:04:01.237Z,75.87
2019-01-29T00:06:27.563Z,75.05
2019-01-29T00:08:54.130Z,74.75
2019-01-29T00:11:20.460Z,75.17
2019-01-29T00:13:46.758Z,76.48
2019-01-29T00:16:13.055Z,76.14
2019-01-29T00:18:39.350Z,76.28
2019-01-29T00:21:05.905Z,76.28
2019-01-29T00:23:32.518Z,76.77
2019-01-29T00:25:59.068Z,76.96
2019-01-29T00:28:25.669Z,76.80
2019-01-29T00:30:52.214Z,76.95
2019-01-29T00:33:18.537Z,76.44
2019-01-29T00:35:44.873Z,76.78
2019-01-29T00:38:11.464Z,78.50
2019-01-29T00:40:37.872Z,78.92
2019-01-29T00:43:04.388Z,78.27
2019-01-29T00:45:30.681Z,78.78
2019-01-29T00:47:56.977Z,78.29
2019-01-29T00:50:23.712Z,77.81
2019-01-29T00:52:50.013Z,77.97
2019-01-29T00:55:16.415Z,77.44
2019-01-29T00:57:43.094Z,78.09
2019-01-29T01:00:19.871Z,77.70
2019-01-29T01:02:46.208Z,77.11
2019-01-29T01:05:13.763Z,76.71
2019-01-29T01:07:40.258Z,76.72
2019-01-29T01:10:10.702Z,76.03
2019-01-29T01:12:37.258Z,75.56
2019-01-29T01:15:08.126Z,75.34
2019-01-29T01:17:34.687Z,75.33
2019-01-29T01:20:01.014Z,75.79
2019-01-29T01:22:27.635Z,75.34
2019-01-29T01:24:54.079Z,75.09
2019-01-29T01:27:20.685Z,75.73
2019-01-29T01:29:47.289Z,75.56
2019-01-29T01:32:13.632Z,75.27
2019-01-29T01:34:40.241Z,75.62
2019-01-29T01:37:07.082Z,77.33
2019-01-29T01:39:33.644Z,77.25
2019-01-29T01:42:00.213Z,78.00
2019-01-29T01:44:26.534Z,78.00
2019-01-29T01:46:53.092Z,77.38
2019-01-29T01:49:19.414Z,78.10
2019-01-29T01:51:45.719Z,78.21
2019-01-29T01:54:12.029Z,79.28
2019-01-29T01:56:38.594Z,81.53
2019-01-29T01:59:05.924Z,82.51
2019-01-29T02:01:32.502Z,81.93
2019-01-29T02:03:59.064Z,81.70
2019-01-29T02:06:25.399Z,81.43
2019-01-29T02:08:51.726Z,80.33
2019-01-29T02:11:18.158Z,79.69
2019-01-29T02:13:44.732Z,78.57
2019-01-29T02:16:11.287Z,78.66
2019-01-29T02:18:37.829Z,77.69
2019-01-29T02:21:04.393Z,76.92
2019-01-29T02:23:30.711Z,76.59
2019-01-29T02:25:57.002Z,77.87
2019-01-29T02:28:23.330Z,77.18
2019-01-29T02:30:49.629Z,76.96
2019-01-29T02:33:16.209Z,76.23
2019-01-29T02:35:42.541Z,75.19
2019-01-29T02:38:08.834Z,75.41
2019-01-29T02:40:35.415Z,74.88
2019-01-29T02:43:01.757Z,75.39
2019-01-29T02:45:28.173Z,75.94
2019-01-29T02:47:56.538Z,75.02
2019-01-29T02:50:22.863Z,74.40
2019-01-29T02:52:49.291Z,74.86
2019-01-29T02:55:16.158Z,74.38
2019-01-29T02:57:42.482Z,73.96
2019-01-29T03:00:15.952Z,74.24
2019-01-29T03:02:42.244Z,74.74
2019-01-29T03:05:11.786Z,74.22
2019-01-29T03:07:38.399Z,74.45
2019-01-29T03:10:10.041Z,74.15
2019-01-29T03:12:36.613Z,75.33
2019-01-29T03:15:08.264Z,75.82
2019-01-29T03:17:34.846Z,75.87
2019-01-29T03:20:01.134Z,77.07
2019-01-29T03:22:27.695Z,76.62
2019-01-29T03:24:53.997Z,76.05
2019-01-29T03:27:20.580Z,76.12
2019-01-29T03:29:46.878Z,76.59
2019-01-29T03:32:13.174Z,77.01
2019-01-29T03:34:39.480Z,76.28
2019-01-29T03:37:06.034Z,76.21
2019-01-29T03:39:32.382Z,75.95
2019-01-29T03:41:58.692Z,76.51
2019-01-29T03:44:25.335Z,75.77
2019-01-29T03:46:51.615Z,75.45
2019-01-29T03:49:17.959Z,74.74
2019-01-29T03:51:44.259Z,75.38
2019-01-29T03:54:10.582Z,75.94
2019-01-29T03:56:36.899Z,75.53
2019-01-29T03:59:03.569Z,75.77
2019-01-29T04:01:29.895Z,76.60
2019-01-29T04:03:56.204Z,77.80
2019-01-29T04:06:22.775Z,77.29
2019-01-29T04:08:49.324Z,77.04
2019-01-29T04:11:15.621Z,77.07
2019-01-29T04:13:41.947Z,76.19
2019-01-29T04:16:08.353Z,76.62
2019-01-29T04:18:34.942Z,77.01
2019-01-29T04:21:01.496Z,76.81
2019-01-29T04:23:28.106Z,76.96
2019-01-29T04:25:54.681Z,78.06
2019-01-29T04:28:21.021Z,77.73
2019-01-29T04:30:47.368Z,76.35
2019-01-29T04:33:13.944Z,76.84
2019-01-29T04:35:40.595Z,76.58
2019-01-29T04:38:07.111Z,76.29
2019-01-29T04:40:33.692Z,75.56
2019-01-29T04:43:00.329Z,76.38
2019-01-29T04:45:26.932Z,75.84
2019-01-29T04:47:53.531Z,77.35
2019-01-29T04:50:20.490Z,77.79
2019-01-29T04:52:46.820Z,76.56
2019-01-29T04:55:15.661Z,77.11
2019-01-29T04:57:41.948Z,76.63
2019-01-29T05:00:13.181Z,75.93
2019-01-29T05:02:39.487Z,77.01
2019-01-29T05:05:08.927Z,76.15
2019-01-29T05:07:35.241Z,76.10
2019-01-29T05:10:02.182Z,75.70
2019-01-29T05:12:28.492Z,75.94
2019-01-29T05:14:54.813Z,75.82
2019-01-29T05:17:21.167Z,74.72
2019-01-29T05:19:47.748Z,73.95
2019-01-29T05:22:14.361Z,73.72
2019-01-29T05:24:40.969Z,72.58
2019-01-29T05:27:07.316Z,73.05
2019-01-29T05:29:33.909Z,72.56
2019-01-29T05:32:01.235Z,72.22
2019-01-29T05:34:27.805Z,72.11
2019-01-29T05:36:54.145Z,71.83
2019-01-29T05:39:20.491Z,71.85
2019-01-29T05:41:46.784Z,71.03
2019-01-29T05:44:13.400Z,71.90
2019-01-29T05:46:39.729Z,71.87
2019-01-29T05:49:06.266Z,71.76
2019-01-29T05:51:32.831Z,71.12
2019-01-29T05:53:59.401Z,71.96
2019-01-29T05:56:25.732Z,70.93
2019-01-29T05:58:52.056Z,70.95
2019-01-29T06:01:18.437Z,70.82
2019-01-29T06:03:44.756Z,71.17
2019-01-29T06:06:11.328Z,71.86
2019-01-29T06:08:37.658Z,71.02
2019-01-29T06:11:04.005Z,70.82
2019-01-29T06:13:30.351Z,70.05
2019-01-29T06:15:56.645Z,69.60
2019-01-29T06:18:22.984Z,69.55
2019-01-29T06:20:49.348Z,69.37
2019-01-29T06:23:15.624Z,68.50
2019-01-29T06:25:41.978Z,68.16
2019-01-29T06:28:08.302Z,69.29
2019-01-29T06:30:34.626Z,69.09
2019-01-29T06:33:00.948Z,68.37
2019-01-29T06:35:27.240Z,68.70
2019-01-29T06:37:53.971Z,68.23
2019-01-29T06:40:23.478Z,67.44
2019-01-29T06:42:51.127Z,68.22
2019-01-29T06:45:20.303Z,68.00
2019-01-29T06:47:47.015Z,68.21
2019-01-29T06:50:17.123Z,68.61
2019-01-29T06:52:43.414Z,67.83
2019-01-29T06:55:14.258Z,68.34
2019-01-29T06:57:40.825Z,68.06
2019-01-29T07:00:17.723Z,67.84
2019-01-29T07:02:44.587Z,67.57
2019-01-29T07:05:11.524Z,67.73
2019-01-29T07:07:37.863Z,68.05
2019-01-29T07:10:09.721Z,68.59
2019-01-29T07:12:36.189Z,68.35
2019-01-29T07:15:07.389Z,68.23
2019-01-29T07:17:34.102Z,68.50
2019-01-29T07:20:00.415Z,68.26
2019-01-29T07:22:27.021Z,67.98
2019-01-29T07:24:53.328Z,68.02
2019-01-29T07:27:19.663Z,68.16
2019-01-29T07:29:46.063Z,68.54
2019-01-29T07:32:12.406Z,68.74
2019-01-29T07:34:38.721Z,68.96
2019-01-29T07:37:05.059Z,68.37
2019-01-29T07:39:31.676Z,68.21
2019-01-29T07:41:58.237Z,67.25
2019-01-29T07:44:24.835Z,67.69
2019-01-29T07:46:51.159Z,67.88
2019-01-29T07:49:17.529Z,67.94
2019-01-29T07:51:43.856Z,68.17
2019-01-29T07:54:10.201Z,67.61
2019-01-29T07:56:36.769Z,67.90
2019-01-29T07:59:03.438Z,67.74
2019-01-29T08:01:30.013Z,67.70
2019-01-29T08:03:57.577Z,67.01
2019-01-29T08:06:23.909Z,66.31
2019-01-29T08:08:50.249Z,66.24
2019-01-29T08:11:16.728Z,66.00
2019-01-29T08:13:43.023Z,66.05
2019-01-29T08:16:09.488Z,66.07
2019-01-29T08:18:35.795Z,65.55
2019-01-29T08:21:02.393Z,65.36
2019-01-29T08:23:28.981Z,65.74
2019-01-29T08:25:55.301Z,65.96
2019-01-29T08:28:21.902Z,65.89
2019-01-29T08:30:48.474Z,65.30
2019-01-29T08:33:15.123Z,65.43
2019-01-29T08:35:41.718Z,66.27
2019-01-29T08:38:09.382Z,66.50
2019-01-29T08:40:35.952Z,66.83
2019-01-29T08:43:02.294Z,66.65
2019-01-29T08:45:28.894Z,65.53
2019-01-29T08:47:55.501Z,65.98
2019-01-29T08:50:24.813Z,65.84
2019-01-29T08:52:51.136Z,66.42
2019-01-29T08:55:17.808Z,67.02
2019-01-29T08:57:44.119Z,66.59
2019-01-29T09:00:15.129Z,67.36
2019-01-29T09:02:42.294Z,68.30
2019-01-29T09:05:09.353Z,67.72
2019-01-29T09:07:35.682Z,66.70
2019-01-29T09:10:07.125Z,66.37
2019-01-29T09:12:33.462Z,66.48
2019-01-29T09:14:59.771Z,67.25
2019-01-29T09:17:26.184Z,66.36
2019-01-29T09:19:52.763Z,67.25
2019-01-29T09:22:19.103Z,66.25
2019-01-29T09:24:45.710Z,66.31
2019-01-29T09:27:12.294Z,67.10
2019-01-29T09:29:38.908Z,66.51
2019-01-29T09:32:05.566Z,65.39
2019-01-29T09:34:31.918Z,65.62
2019-01-29T09:36:58.453Z,64.76
2019-01-29T09:39:25.062Z,63.23
2019-01-29T09:41:51.462Z,63.06
2019-01-29T09:44:17.784Z,62.15
2019-01-29T09:46:44.088Z,62.07
2019-01-29T09:49:11.287Z,62.73
2019-01-29T09:51:37.708Z,62.03
2019-01-29T09:54:04.482Z,61.82
2019-01-29T09:56:30.884Z,61.04
2019-01-29T09:58:57.197Z,61.98
2019-01-29T10:01:23.894Z,60.57
2019-01-29T10:03:50.255Z,59.47
2019-01-29T10:06:16.572Z,59.66
2019-01-29T10:08:42.897Z,59.13
2019-01-29T10:11:09.537Z,59.53
2019-01-29T10:13:36.136Z,59.24
2019-01-29T10:16:03.409Z,59.66
2019-01-29T10:18:29.723Z,59.52
2019-01-29T10:20:56.117Z,58.32
2019-01-29T10:23:22.690Z,58.73
2019-01-29T10:25:49.015Z,58.83
2019-01-29T10:28:15.590Z,58.47
2019-01-29T10:30:42.208Z,58.76
2019-01-29T10:33:08.495Z,59.55
2019-01-29T10:35:34.938Z,58.97
2019-01-29T10:38:01.499Z,59.33
2019-01-29T10:40:27.943Z,58.71
2019-01-29T10:42:56.252Z,58.74
2019-01-29T10:45:25.182Z,59.85
2019-01-29T10:47:51.785Z,59.69
2019-01-29T10:50:24.561Z,58.87
2019-01-29T10:52:51.508Z,58.75
2019-01-29T10:55:18.148Z,59.72
2019-01-29T10:57:45.516Z,58.25
2019-01-29T11:00:22.743Z,57.82
2019-01-29T11:02:49.276Z,58.02
2019-01-29T11:05:18.599Z,58.29
2019-01-29T11:07:45.131Z,57.65
2019-01-29T11:10:15.001Z,56.85
2019-01-29T11:12:41.605Z,56.04
2019-01-29T11:15:13.575Z,56.05
2019-01-29T11:17:39.895Z,56.85
2019-01-29T11:20:16.832Z,57.97
2019-01-29T11:22:43.768Z,58.19
2019-01-29T11:25:20.271Z,57.16
2019-01-29T11:27:46.835Z,57.34
2019-01-29T11:30:17.528Z,57.38
2019-01-29T11:32:43.843Z,57.59
2019-01-29T11:35:10.532Z,58.34
2019-01-29T11:37:37.130Z,58.35
2019-01-29T11:40:20.120Z,59.03
2019-01-29T11:42:51.865Z,57.24
2019-01-29T11:45:38.371Z,56.79
2019-01-29T11:48:04.693Z,57.85
2019-01-29T11:50:31.266Z,57.29
2019-01-29T11:52:57.637Z,57.10
2019-01-29T11:55:24.059Z,56.88
2019-01-29T11:57:50.629Z,57.07
2019-01-29T12:00:29.015Z,56.80
2019-01-29T12:02:55.323Z,57.85
2019-01-29T12:05:21.716Z,57.75
2019-01-29T12:07:48.002Z,59.31
2019-01-29T12:10:14.748Z,58.95
2019-01-29T12:12:41.032Z,58.75
2019-01-29T12:15:15.259Z,58.38
2019-01-29T12:17:41.824Z,58.54
2019-01-29T12:20:13.091Z,57.70
2019-01-29T12:22:39.760Z,58.19
2019-01-29T12:25:06.750Z,58.50
2019-01-29T12:27:33.184Z,59.47
2019-01-29T12:29:59.473Z,60.12
2019-01-29T12:32:26.068Z,59.23
2019-01-29T12:34:52.649Z,58.70
2019-01-29T12:37:21.098Z,58.72
2019-01-29T12:39:47.389Z,58.47
2019-01-29T12:42:13.947Z,58.74
2019-01-29T12:44:40.988Z,58.89
2019-01-29T12:47:07.285Z,58.89
2019-01-29T12:49:33.932Z,59.10
2019-01-29T12:52:02.938Z,60.03
2019-01-29T12:54:29.535Z,59.42
2019-01-29T12:56:56.099Z,60.14
2019-01-29T12:59:22.704Z,59.74
2019-01-29T13:01:49.302Z,58.97
2019-01-29T13:04:18.436Z,58.81
2019-01-29T13:06:45.015Z,59.33
2019-01-29T13:09:11.798Z,58.84
2019-01-29T13:11:38.387Z,58.91
2019-01-29T13:14:04.684Z,57.92
2019-01-29T13:16:31.289Z,58.01
2019-01-29T13:18:57.878Z,57.23
2019-01-29T13:21:24.210Z,57.60
2019-01-29T13:23:50.849Z,57.64
2019-01-29T13:26:17.175Z,56.88
2019-01-29T13:28:43.752Z,55.48
2019-01-29T13:31:10.083Z,55.55
2019-01-29T13:33:36.401Z,56.54
2019-01-29T13:36:05.897Z,56.95
2019-01-29T13:38:32.219Z,55.94
2019-01-29T13:40:58.523Z,56.47
2019-01-29T13:43:25.094Z,56.25
2019-01-29T13:45:51.670Z,55.52
2019-01-29T13:48:19.902Z,56.07
2019-01-29T13:50:49.807Z,55.97
2019-01-29T13:53:16.151Z,56.69
2019-01-29T13:55:42.775Z,57.52
2019-01-29T13:58:09.596Z,56.76
2019-01-29T14:00:38.894Z,56.03
2019-01-29T14:03:07.931Z,56.67
2019-01-29T14:05:34.315Z,56.22
2019-01-29T14:08:00.651Z,56.44
2019-01-29T14:10:27.190Z,56.90
2019-01-29T14:12:54.014Z,56.77
2019-01-29T14:15:26.986Z,57.13
2019-01-29T14:17:53.456Z,57.02
2019-01-29T14:20:20.091Z,56.53
2019-01-29T14:22:46.676Z,56.65
2019-01-29T14:25:13.395Z,55.96
2019-01-29T14:27:39.767Z,56.15
2019-01-29T14:30:26.096Z,55.20
2019-01-29T14:32:52.847Z,55.49
2019-01-29T14:35:19.160Z,55.26
2019-01-29T14:38:00.152Z,54.45
2019-01-29T14:40:27.821Z,54.41
2019-01-29T14:42:54.483Z,54.93
2019-01-29T14:45:23.937Z,55.46
2019-01-29T14:47:50.559Z,55.60
2019-01-29T14:50:17.346Z,55.08
2019-01-29T14:52:43.688Z,54.21
2019-01-29T14:55:10.905Z,54.24
2019-01-29T14:57:37.492Z,54.15
2019-01-29T15:00:09.877Z,55.28
2019-01-29T15:02:36.472Z,54.68
2019-01-29T15:05:06.206Z,55.42
2019-01-29T15:07:32.502Z,55.63
2019-01-29T15:09:59.190Z,56.71
2019-01-29T15:12:25.596Z,57.15
2019-01-29T15:14:52.189Z,57.18
2019-01-29T15:17:26.035Z,57.10
2019-01-29T15:19:52.381Z,57.15
2019-01-29T15:22:19.029Z,56.82
2019-01-29T15:24:46.276Z,56.79
2019-01-29T15:27:13.867Z,56.93
2019-01-29T15:29:40.198Z,56.91
2019-01-29T15:32:06.773Z,57.32
2019-01-29T15:34:33.367Z,57.33
2019-01-29T15:36:59.683Z,57.24
2019-01-29T15:39:26.268Z,58.20
2019-01-29T15:41:52.599Z,58.40
2019-01-29T15:44:19.181Z,58.70
2019-01-29T15:46:45.899Z,59.34
2019-01-29T15:49:12.225Z,59.78
2019-01-29T15:51:38.799Z,60.27
2019-01-29T15:54:05.217Z,60.66
2019-01-29T15:56:31.732Z,60.91
2019-01-29T15:58:58.064Z,61.11
2019-01-29T16:01:24.657Z,61.46
2019-01-29T16:03:50.990Z,61.34
2019-01-29T16:06:17.429Z,61.23
2019-01-29T16:08:44.027Z,61.60
2019-01-29T16:11:10.647Z,62.24
2019-01-29T16:13:37.241Z,62.38
2019-01-29T16:16:03.674Z,62.67
2019-01-29T16:18:29.997Z,62.98
2019-01-29T16:20:56.578Z,63.14
2019-01-29T16:23:23.140Z,63.26
2019-01-29T16:25:49.766Z,63.51
2019-01-29T16:28:16.350Z,63.60
2019-01-29T16:30:42.937Z,63.60
2019-01-29T16:33:09.539Z,63.88
2019-01-29T16:35:41.679Z,63.73
2019-01-29T16:38:08.367Z,63.67
2019-01-29T16:40:38.653Z,63.57
2019-01-29T16:43:05.097Z,63.59
2019-01-29T16:45:33.774Z,63.64
2019-01-29T16:48:01.786Z,63.87
2019-01-29T16:50:29.351Z,63.77
2019-01-29T16:52:55.990Z,64.37
2019-01-29T16:55:24.397Z,64.05
2019-01-29T16:57:51.313Z,64.40
2019-01-29T17:00:28.763Z,64.03
2019-01-29T17:02:55.963Z,64.10
2019-01-29T17:05:22.848Z,65.16
2019-01-29T17:07:49.177Z,65.21
2019-01-29T17:10:22.823Z,65.82
2019-01-29T17:12:49.273Z,65.98
2019-01-29T17:15:25.182Z,65.89
2019-01-29T17:17:51.599Z,65.78
2019-01-29T17:20:22.038Z,65.34
2019-01-29T17:22:48.591Z,64.98
2019-01-29T17:25:16.399Z,65.06
2019-01-29T17:27:42.709Z,65.31
2019-01-29T17:30:17.203Z,65.19
2019-01-29T17:32:43.563Z,65.78
2019-01-29T17:35:10.167Z,66.30
2019-01-29T17:37:36.532Z,66.59
2019-01-29T17:40:11.812Z,67.04
2019-01-29T17:42:38.379Z,67.46
2019-01-29T17:45:11.244Z,67.90
2019-01-29T17:47:37.561Z,67.71
2019-01-29T17:50:12.160Z,67.93
2019-01-29T17:52:38.927Z,67.89
2019-01-29T17:55:10.519Z,67.71
2019-01-29T17:57:37.321Z,67.21
2019-01-29T18:00:09.425Z,67.15
2019-01-29T18:02:36.078Z,67.28
2019-01-29T18:05:04.399Z,66.91
2019-01-29T18:07:30.805Z,66.85
2019-01-29T18:09:57.454Z,66.76
2019-01-29T18:12:24.040Z,66.93
2019-01-29T18:14:50.741Z,67.42
2019-01-29T18:17:17.093Z,67.71
2019-01-29T18:19:43.718Z,68.05
2019-01-29T18:22:10.054Z,68.82
2019-01-29T18:24:36.669Z,69.26
2019-01-29T18:27:03.265Z,69.71
2019-01-29T18:29:29.921Z,69.83
2019-01-29T18:31:56.572Z,69.91
2019-01-29T18:34:22.991Z,69.88
2019-01-29T18:36:50.988Z,70.02
2019-01-29T18:39:17.509Z,69.78
2019-01-29T18:41:43.870Z,68.89
2019-01-29T18:44:11.162Z,67.95
2019-01-29T18:46:37.915Z,67.60
2019-01-29T18:49:04.314Z,67.41
2019-01-29T18:51:30.669Z,68.07
2019-01-29T18:53:57.428Z,67.69
2019-01-29T18:56:23.789Z,67.48
2019-01-29T18:58:50.442Z,67.50
2019-01-29T19:01:16.809Z,67.60
2019-01-29T19:03:43.264Z,67.52
2019-01-29T19:06:09.597Z,67.89
2019-01-29T19:08:35.976Z,68.28
2019-01-29T19:11:02.275Z,69.01
2019-01-29T19:13:28.887Z,69.42
2019-01-29T19:15:55.294Z,69.55
2019-01-29T19:18:21.885Z,69.94
2019-01-29T19:20:48.283Z,70.18
2019-01-29T19:23:14.602Z,70.22
2019-01-29T19:25:40.957Z,69.78
2019-01-29T19:28:07.547Z,69.60
2019-01-29T19:30:34.271Z,68.92
2019-01-29T19:33:00.596Z,68.80
2019-01-29T19:35:27.412Z,68.77
2019-01-29T19:37:54.090Z,67.87
2019-01-29T19:40:20.695Z,67.76
2019-01-29T19:42:47.403Z,67.28
2019-01-29T19:45:20.886Z,66.15
2019-01-29T19:47:47.468Z,65.74
2019-01-29T19:50:19.361Z,65.53
2019-01-29T19:52:46.187Z,65.47
2019-01-29T19:55:12.883Z,65.78
2019-01-29T19:57:39.479Z,65.71
2019-01-29T20:00:11.536Z,65.67
2019-01-29T20:02:37.941Z,65.81
2019-01-29T20:05:08.204Z,65.77
2019-01-29T20:07:34.820Z,65.61
2019-01-29T20:10:01.410Z,65.41
2019-01-29T20:12:28.163Z,65.49
2019-01-29T20:14:54.485Z,65.60
2019-01-29T20:17:21.287Z,65.92
2019-01-29T20:19:47.618Z,66.23
2019-01-29T20:22:14.217Z,66.76
2019-01-29T20:24:40.545Z,67.17
2019-01-29T20:27:06.890Z,67.44
2019-01-29T20:29:33.255Z,67.62
2019-01-29T20:31:59.586Z,67.79
2019-01-29T20:34:26.310Z,68.08
2019-01-29T20:36:52.793Z,68.57
2019-01-29T20:39:19.191Z,68.72
2019-01-29T20:41:45.575Z,68.98
2019-01-29T20:44:12.159Z,69.06
2019-01-29T20:46:38.855Z,68.82
2019-01-29T20:49:05.265Z,68.87
2019-01-29T20:51:31.876Z,68.87
2019-01-29T20:53:58.391Z,69.08
2019-01-29T20:56:24.708Z,69.29
2019-01-29T20:58:52.858Z,69.55
2019-01-29T21:01:19.385Z,69.80
2019-01-29T21:03:45.773Z,69.75
2019-01-29T21:06:12.099Z,70.13
2019-01-29T21:08:40.440Z,70.19
2019-01-29T21:11:07.076Z,69.96
2019-01-29T21:13:33.758Z,69.62
2019-01-29T21:16:00.125Z,69.67
2019-01-29T21:18:26.694Z,69.60
2019-01-29T21:20:57.259Z,69.74
2019-01-29T21:23:21.319Z,69.72
2019-01-29T21:25:47.895Z,69.77
2019-01-29T21:28:14.217Z,69.88
2019-01-29T21:30:40.667Z,69.72
2019-01-29T21:33:08.144Z,69.82
2019-01-29T21:35:34.583Z,69.51
2019-01-29T21:38:01.045Z,68.88
2019-01-29T21:40:27.521Z,68.45
2019-01-29T21:42:54.418Z,67.78
2019-01-29T21:45:23.031Z,68.08
2019-01-29T21:47:50.952Z,68.17
2019-01-29T21:50:26.062Z,68.11
2019-01-29T21:52:52.923Z,68.79
2019-01-29T21:55:19.666Z,69.09
2019-01-29T21:57:46.217Z,69.12
2019-01-29T22:00:23.954Z,69.26
2019-01-29T22:02:51.514Z,69.26
2019-01-29T22:05:18.211Z,69.18
2019-01-29T22:07:44.550Z,69.19
2019-01-29T22:10:13.941Z,69.55
2019-01-29T22:12:40.820Z,69.67
2019-01-29T22:15:19.241Z,69.84
2019-01-29T22:17:45.965Z,70.34
2019-01-29T22:20:16.406Z,70.47
2019-01-29T22:22:42.715Z,70.42
2019-01-29T22:25:16.725Z,70.29
2019-01-29T22:27:43.254Z,70.63
2019-01-29T22:30:32.635Z,70.58
2019-01-29T22:32:59.071Z,70.55
2019-01-29T22:35:25.622Z,70.71
2019-01-29T22:37:52.238Z,70.65
2019-01-29T22:40:29.538Z,70.71
2019-01-29T22:42:56.703Z,70.23
2019-01-29T22:45:23.333Z,70.58
2019-01-29T22:47:49.932Z,70.54
2019-01-29T22:50:23.943Z,70.61
2019-01-29T22:52:50.529Z,70.56
2019-01-29T22:55:16.995Z,70.95
2019-01-29T22:57:43.554Z,71.01
2019-01-29T23:00:51.710Z,70.94
2019-01-29T23:03:25.092Z,71.31
2019-01-29T23:06:13.812Z,71.31
2019-01-29T23:08:40.387Z,71.27
2019-01-29T23:11:06.961Z,71.33
2019-01-29T23:13:33.543Z,71.15
2019-01-29T23:15:59.847Z,71.05
2019-01-29T23:18:26.422Z,70.84
2019-01-29T23:20:52.728Z,70.86
2019-01-29T23:23:19.315Z,70.72
2019-01-29T23:25:45.956Z,70.69
2019-01-29T23:28:12.295Z,69.74
2019-01-29T23:30:38.923Z,69.93
2019-01-29T23:33:05.594Z,70.41
2019-01-29T23:35:32.173Z,70.70
2019-01-29T23:37:58.502Z,70.55
2019-01-29T23:40:24.851Z,70.68
2019-01-29T23:42:51.280Z,70.61
2019-01-29T23:45:17.883Z,70.70
2019-01-29T23:47:44.217Z,70.61
2019-01-29T23:50:15.269Z,70.96
2019-01-29T23:52:41.702Z,70.80
2019-01-29T23:55:09.250Z,70.98
2019-01-29T23:57:35.593Z,71.06
